Amunt
Inicio > meteoXarxa
Fes-te'n soci

METEOXARXA

Traiguera
Ubicació
Comarca el Baix Maestrat
Altitud (msnm)
Posició geogràfica 40° 31' 22.03" N, 00° 17' 17.02" E
Model Davis Vantage VUE
Presa de dades
Font de les dades Ajuntament de Traiguera
Estadístiques. Resum
Data Temperatura (ºC) Humitat (%) Pressió (hPa) Vent (km/h) Precipit. (mm)
Mínima Mitjana Màxima Mínima Mitjana Màxima Mínima Mitjana Màxima Predom. Mitjana Ràfega màxima Total Dies de pluja
Mínima Mitjana Màxima Mínima Mitjana Màxima
Últimes dades diàries
16-01-2017 9,3     11,4     14,6 NNW 19,2 72,4 0,0  
15-01-2017 6,4     8,9     11,9 NNW 16,7 61,2 0,0  
14-01-2017 6,1     7,5     10,2 NNW 16,3 54,7 0,0  
13-01-2017 6,8     11,1     16,7 WNW 14,8 59,5 0,0  
12-01-2017 9,5     13,9     18,0 WNW 5,3 35,4 0,0  
11-01-2017 7,7     10,7     13,2 NNW 8,4 48,3 0,0  
10-01-2017 8,1     11,7     13,6 NNW 17,4 78,9 0,0  
09-01-2017 6,7     10,1     13,9 NNW 7,1 43,5 0,0  
08-01-2017 2,9     9,1     14,8 WNW 4,8 38,6 0,0  
07-01-2017 2,8     6,3     11,8 W 3,4 16,1 0,0  
06-01-2017 3,3     6,4     12,0 W 3,1 17,7 0,0  
05-01-2017 4,7     11,7     16,2 NNW 10,3 51,5 0,0  
04-01-2017 3,2     6,7     12,6 NNW 1,4 14,5 0,4  
03-01-2017 2,5     6,8     11,7 WSW 1,0 12,9 0,0  
02-01-2017 -0,1     4,9     11,3 W 1,6 16,1 0,2  
01-01-2017 0,9     4,9     9,8 W 1,4 11,3 0,0  
31-12-2016 1,0     5,7     10,5 W 1,4 12,9 0,0  
30-12-2016 3,0     6,2     12,3 W 1,3 11,3 0,0  
29-12-2016 4,1     8,0     W 2,4 17,7 0,0  
28-12-2016 4,1     8,8     15,4 WNW 2,3 16,1 0,0  
27-12-2016 4,1     8,1     12,4 NNW 1,3 11,3 0,0  
26-12-2016 6,2     9,8     16,6 WNW 1,1 14,5 0,0  
25-12-2016 8,2     11,6     16,1 W 1,8 19,3 0,0  
24-12-2016 8,9     12,9     16,4 NNW 4,5 29,0 0,0  
23-12-2016 7,6     11,4     16,5 W 2,3 22,5 0,0  
22-12-2016 8,6     11,9     16,0 NNW 4,5 27,4 0,0  
21-12-2016 8,5     11,3     15,1 NNW 14,0 40,2 0,0  
20-12-2016 8,9     10,6     13,3 NNW 20,4 64,4 0,0  
19-12-2016 6,0     8,0     9,7 NNW 10,5 41,8 4,8  
18-12-2016 8,0     9,7     10,8 N 9,8 33,8 2,0  
17-12-2016 9,5     10,8     12,1 N 10,0 35,4 26,2  
16-12-2016 9,8     10,8     11,8 N 6,6 24,1 21,6  
Dades del mes en curs (actualitzades fins l'últim dia disponible)
01/2017 -0,1 5,1 9,5 8,9 9,8 13,3 18,0   8,3 78,9 0,6  
Últimes dades mensuals
12/2016 1,0 7,0 12,3 10,1 9,7 14,4 17,2 4,4 64,4 84,0 10
11/2016 5,1 9,6 13,3 12,8 12,2 16,6 24,4 5,0 78,9 78,4 10
10/2016 11,1 14,5 17,6 17,9 16,3 22,1 25,9 3,1 40,2 14,8 10
09/2016 12,9 17,7 24,2 22,2 21,6 27,2 37,6 5,8 59,5 82,6 5
08/2016 16,3 19,6 22,3 24,3 25,4 29,2 33,6 5,7 53,1 6,0 3
07/2016 15,9 19,7 22,7 24,7 25,3 29,7 34,2 6,1 51,5 0,8 2
06/2016 13,6 17,1 22,3 21,7 17,7 26,8 31,8 6,7 66,0 4,4 6
Dades de l'any en curs (actualitzades fins l'últim dia disponible)
2017 -0,1 5,1 9,5 8,9 9,8 13,3 18,0   8,3 78,9 0,6  
Últimes dades anuals